createdAt,value
2022-08-19T00:01:30.382Z,14.73
2022-08-19T00:03:58.885Z,14.27
2022-08-19T00:06:27.410Z,13.83
2022-08-19T00:08:55.375Z,14.10
2022-08-19T00:11:25.918Z,14.47
2022-08-19T00:13:54.331Z,14.87
2022-08-19T00:16:26.147Z,14.77
2022-08-19T00:18:56.151Z,14.93
2022-08-19T00:21:24.503Z,15.93
2022-08-19T00:23:52.368Z,15.20
2022-08-19T00:26:20.857Z,15.60
2022-08-19T00:28:50.082Z,15.13
2022-08-19T00:31:18.244Z,14.90
2022-08-19T00:33:46.171Z,13.80
2022-08-19T00:36:14.271Z,15.17
2022-08-19T00:38:43.909Z,15.83
2022-08-19T00:41:14.185Z,16.07
2022-08-19T00:43:42.339Z,15.50
2022-08-19T00:46:11.862Z,15.30
2022-08-19T00:48:39.725Z,15.70
2022-08-19T00:51:08.092Z,15.53
2022-08-19T00:53:36.030Z,18.90
2022-08-19T00:56:07.182Z,15.37
2022-08-19T00:58:37.044Z,15.37
2022-08-19T01:01:06.694Z,15.47
2022-08-19T01:03:57.251Z,15.70
2022-08-19T01:06:24.070Z,15.90
2022-08-19T01:08:52.054Z,15.20
2022-08-19T01:11:19.947Z,14.77
2022-08-19T01:13:49.279Z,15.83
2022-08-19T01:16:20.907Z,14.70
2022-08-19T01:18:51.316Z,15.00
2022-08-19T01:21:26.434Z,17.03
2022-08-19T01:23:55.754Z,16.40
2022-08-19T01:26:26.460Z,15.10
2022-08-19T01:28:59.627Z,14.33
2022-08-19T01:31:32.818Z,15.23
2022-08-19T01:34:02.255Z,14.23
2022-08-19T01:36:32.742Z,16.57
2022-08-19T01:39:04.286Z,13.53
2022-08-19T01:41:32.158Z,15.90
2022-08-19T01:44:13.543Z,15.57
2022-08-19T01:46:46.487Z,14.57
2022-08-19T01:49:14.329Z,13.53
2022-08-19T01:51:42.114Z,14.13
2022-08-19T01:54:13.571Z,13.30
2022-08-19T01:56:41.370Z,13.27
2022-08-19T01:59:14.196Z,13.97
2022-08-19T02:01:42.497Z,13.90
2022-08-19T02:04:10.794Z,12.37
2022-08-19T02:06:38.846Z,13.03
2022-08-19T02:09:07.550Z,15.50
2022-08-19T02:11:39.063Z,13.80
2022-08-19T02:14:09.175Z,12.77
2022-08-19T02:16:38.508Z,12.53
2022-08-19T02:19:06.660Z,12.53
2022-08-19T02:21:34.857Z,12.80
2022-08-19T02:24:02.805Z,12.17
2022-08-19T02:26:30.694Z,13.40
2022-08-19T02:29:00.064Z,13.67
2022-08-19T02:31:28.869Z,12.87
2022-08-19T02:33:57.224Z,12.67
2022-08-19T02:36:26.598Z,13.37
2022-08-19T02:38:55.014Z,14.10
2022-08-19T02:41:26.890Z,13.00
2022-08-19T02:44:30.205Z,12.23
2022-08-19T02:46:45.683Z,13.53
2022-08-19T02:49:13.478Z,12.60
2022-08-19T02:51:44.644Z,12.77
2022-08-19T02:54:14.384Z,12.93
2022-08-19T02:56:43.721Z,11.27
2022-08-19T02:59:12.695Z,11.33
2022-08-19T03:01:43.162Z,12.70
2022-08-19T03:04:15.147Z,12.80
2022-08-19T03:06:46.583Z,12.27
2022-08-19T03:09:15.199Z,12.30
2022-08-19T03:11:43.310Z,12.37
2022-08-19T03:14:12.278Z,12.47
2022-08-19T03:16:46.112Z,12.47
2022-08-19T03:19:16.233Z,12.37
2022-08-19T03:21:45.870Z,13.00
2022-08-19T03:24:15.016Z,12.40
2022-08-19T03:26:44.647Z,11.90
2022-08-19T03:29:13.196Z,12.90
2022-08-19T03:31:52.482Z,12.70
2022-08-19T03:34:27.169Z,12.30
2022-08-19T03:36:57.192Z,11.50
2022-08-19T03:39:26.618Z,13.10
2022-08-19T03:42:32.456Z,11.73
2022-08-19T03:44:46.578Z,13.90
2022-08-19T03:47:16.944Z,11.83
2022-08-19T03:49:47.344Z,11.63
2022-08-19T03:52:15.287Z,11.53
2022-08-19T03:54:43.069Z,13.00
2022-08-19T03:57:11.321Z,14.50
2022-08-19T03:59:40.567Z,12.53
2022-08-19T04:02:11.829Z,12.10
2022-08-19T04:04:41.217Z,11.50
2022-08-19T04:07:11.413Z,12.93
2022-08-19T04:09:39.395Z,12.53
2022-08-19T04:12:07.826Z,12.73
2022-08-19T04:14:36.663Z,12.87
2022-08-19T04:17:06.346Z,12.83
2022-08-19T04:19:34.574Z,13.73
2022-08-19T04:22:02.681Z,11.50
2022-08-19T04:24:32.532Z,14.73
2022-08-19T04:27:02.834Z,13.30
2022-08-19T04:29:31.562Z,14.17
2022-08-19T04:32:00.479Z,11.53
2022-08-19T04:35:02.625Z,12.80
2022-08-19T04:37:27.469Z,14.03
2022-08-19T04:40:18.815Z,14.90
2022-08-19T04:42:46.689Z,15.70
2022-08-19T04:45:17.386Z,14.67
2022-08-19T04:47:47.799Z,14.50
2022-08-19T04:50:25.926Z,12.97
2022-08-19T04:52:54.249Z,14.67
2022-08-19T04:55:24.117Z,11.80
2022-08-19T04:57:52.304Z,14.50
2022-08-19T05:00:20.326Z,11.73
2022-08-19T05:02:50.114Z,13.13
2022-08-19T05:05:18.163Z,13.73
2022-08-19T05:07:45.965Z,13.50
2022-08-19T05:10:14.381Z,11.87
2022-08-19T05:12:43.579Z,11.40
2022-08-19T05:15:12.058Z,12.63
2022-08-19T05:17:59.872Z,13.03
2022-08-19T05:20:45.049Z,14.03
2022-08-19T05:23:21.949Z,12.17
2022-08-19T05:25:51.102Z,12.83
2022-08-19T05:28:20.525Z,11.70
2022-08-19T05:30:49.059Z,15.83
2022-08-19T05:33:16.938Z,13.20
2022-08-19T05:35:45.114Z,12.10
2022-08-19T05:38:13.628Z,12.00
2022-08-19T05:40:41.710Z,16.07
2022-08-19T05:43:10.522Z,12.63
2022-08-19T05:45:43.028Z,10.53
2022-08-19T05:48:12.094Z,12.03
2022-08-19T05:50:40.874Z,12.17
2022-08-19T05:53:09.705Z,12.57
2022-08-19T05:55:39.214Z,16.13
2022-08-19T05:58:08.381Z,12.20
2022-08-19T06:00:36.498Z,11.00
2022-08-19T06:03:09.641Z,12.43
2022-08-19T06:05:49.576Z,11.87
2022-08-19T06:08:34.312Z,13.27
2022-08-19T06:11:19.219Z,13.67
2022-08-19T06:13:51.531Z,10.43
2022-08-19T06:16:23.273Z,13.50
2022-08-19T06:18:54.676Z,10.73
2022-08-19T06:21:23.942Z,9.63
2022-08-19T06:23:52.618Z,10.43
2022-08-19T06:26:21.806Z,11.93
2022-08-19T06:28:50.299Z,9.60
2022-08-19T06:31:21.213Z,12.40
2022-08-19T06:33:50.301Z,11.53
2022-08-19T06:36:21.499Z,9.50
2022-08-19T06:38:53.056Z,9.67
2022-08-19T06:41:20.935Z,9.77
2022-08-19T06:43:49.801Z,9.60
2022-08-19T06:46:22.021Z,10.80
2022-08-19T06:48:54.218Z,11.33
2022-08-19T06:51:24.890Z,10.93
2022-08-19T06:53:54.978Z,11.20
2022-08-19T06:56:31.811Z,9.03
2022-08-19T06:59:00.039Z,10.80
2022-08-19T07:01:27.977Z,9.37
2022-08-19T07:03:55.977Z,7.43
2022-08-19T07:06:44.111Z,10.87
2022-08-19T07:09:18.464Z,9.67
2022-08-19T07:11:48.278Z,8.57
2022-08-19T07:14:19.403Z,10.53
2022-08-19T07:16:49.657Z,8.27
2022-08-19T07:19:19.313Z,11.47
2022-08-19T07:21:49.837Z,8.33
2022-08-19T07:24:19.309Z,7.03
2022-08-19T07:26:47.278Z,9.97
2022-08-19T07:29:24.000Z,8.73
2022-08-19T07:31:56.977Z,9.50
2022-08-19T07:34:25.639Z,10.63
2022-08-19T07:36:56.506Z,9.73
2022-08-19T07:39:26.479Z,7.60
2022-08-19T07:41:54.753Z,8.93
2022-08-19T07:44:23.771Z,8.13
2022-08-19T07:46:54.503Z,10.70
2022-08-19T07:49:23.804Z,5.40
2022-08-19T07:51:56.051Z,5.43
2022-08-19T07:54:25.982Z,4.90
2022-08-19T07:56:54.126Z,7.53
2022-08-19T07:59:23.096Z,5.70
2022-08-19T08:01:51.941Z,4.77
2022-08-19T08:04:37.894Z,5.10
2022-08-19T08:07:25.833Z,5.50
2022-08-19T08:10:03.383Z,6.10
2022-08-19T08:12:35.515Z,7.83
2022-08-19T08:15:08.823Z,7.17
2022-08-19T08:17:49.109Z,4.87
2022-08-19T08:20:20.198Z,6.90
2022-08-19T08:23:07.910Z,4.40
2022-08-19T08:25:37.356Z,4.60
2022-08-19T08:28:06.349Z,4.60
2022-08-19T08:30:36.727Z,7.30
2022-08-19T08:33:05.300Z,7.10
2022-08-19T08:35:34.319Z,4.25
2022-08-19T08:38:05.234Z,4.65
2022-08-19T08:40:44.121Z,3.95
2022-08-19T08:43:22.249Z,4.35
2022-08-19T08:45:57.106Z,4.38
2022-08-19T08:48:29.171Z,5.93
2022-08-19T08:50:59.375Z,4.55
2022-08-19T08:53:31.128Z,4.13
2022-08-19T08:56:06.604Z,4.70
2022-08-19T08:58:44.023Z,4.93
2022-08-19T09:01:13.378Z,4.75
2022-08-19T09:03:44.234Z,9.63
2022-08-19T09:06:21.594Z,6.50
2022-08-19T09:09:04.407Z,5.35
2022-08-19T09:11:49.812Z,5.83
2022-08-19T09:14:52.350Z,5.70
2022-08-19T09:17:31.797Z,6.03
2022-08-19T09:20:05.841Z,4.03
2022-08-19T09:22:38.629Z,6.90
2022-08-19T09:25:10.628Z,5.53
2022-08-19T09:27:43.204Z,4.18
2022-08-19T09:30:15.793Z,4.30
2022-08-19T09:32:44.903Z,5.15
2022-08-19T09:35:14.898Z,4.38
2022-08-19T09:37:43.710Z,4.05
2022-08-19T09:40:14.005Z,6.32
2022-08-19T09:42:49.759Z,8.32
2022-08-19T09:45:25.080Z,4.72
2022-08-19T09:47:55.527Z,5.38
2022-08-19T09:50:25.368Z,5.07
2022-08-19T09:52:57.915Z,6.93
2022-08-19T09:55:31.252Z,5.93
2022-08-19T09:58:00.915Z,5.75
2022-08-19T10:00:28.888Z,5.47
2022-08-19T10:02:56.774Z,4.82
2022-08-19T10:05:42.692Z,8.35
2022-08-19T10:08:13.522Z,7.65
2022-08-19T10:10:46.376Z,4.65
2022-08-19T10:13:16.612Z,10.40
2022-08-19T10:15:47.750Z,9.27
2022-08-19T10:18:17.673Z,9.30
2022-08-19T10:20:46.658Z,6.22
2022-08-19T10:23:21.236Z,4.65
2022-08-19T10:25:54.507Z,7.32
2022-08-19T10:28:22.558Z,7.60
2022-08-19T10:30:51.726Z,5.80
2022-08-19T10:33:39.225Z,8.13
2022-08-19T10:36:10.486Z,5.45
2022-08-19T10:38:39.252Z,9.60
2022-08-19T10:41:20.578Z,6.43
2022-08-19T10:43:48.956Z,5.18
2022-08-19T10:46:17.809Z,4.55
2022-08-19T10:48:47.339Z,5.43
2022-08-19T10:51:33.169Z,6.07
2022-08-19T10:54:02.459Z,8.98
2022-08-19T10:56:54.162Z,6.88
2022-08-19T10:59:26.803Z,9.27
2022-08-19T11:01:56.792Z,6.78
2022-08-19T11:04:28.795Z,7.32
2022-08-19T11:06:57.824Z,8.43
2022-08-19T11:09:33.652Z,7.38
2022-08-19T11:12:04.891Z,7.95
2022-08-19T11:14:34.393Z,8.93
2022-08-19T11:17:03.202Z,10.10
2022-08-19T11:19:31.156Z,7.35
2022-08-19T11:22:03.764Z,11.40
2022-08-19T11:24:32.455Z,6.82
2022-08-19T11:27:08.201Z,8.27
2022-08-19T11:29:36.358Z,7.22
2022-08-19T11:32:06.991Z,7.55
2022-08-19T11:34:36.239Z,7.85
2022-08-19T11:37:05.302Z,8.55
2022-08-19T11:39:34.792Z,8.45
2022-08-19T11:42:25.367Z,10.65
2022-08-19T11:44:53.491Z,8.63
2022-08-19T11:47:21.616Z,9.20
2022-08-19T11:49:50.020Z,12.07
2022-08-19T11:52:17.886Z,10.60
2022-08-19T11:54:45.729Z,7.45
2022-08-19T11:57:17.646Z,7.43
2022-08-19T11:59:50.991Z,7.05
2022-08-19T12:02:19.967Z,7.70
2022-08-19T12:04:48.369Z,6.95
2022-08-19T12:07:16.272Z,8.35
2022-08-19T12:09:44.121Z,8.27
2022-08-19T12:12:15.121Z,8.77
2022-08-19T12:14:42.964Z,7.82
2022-08-19T12:17:12.381Z,8.82
2022-08-19T12:19:41.766Z,7.95
2022-08-19T12:22:09.664Z,28.60
2022-08-19T12:24:37.467Z,8.70
2022-08-19T12:27:05.557Z,7.90
2022-08-19T12:29:42.603Z,7.85
2022-08-19T12:32:12.197Z,9.80
2022-08-19T12:34:40.889Z,9.02
2022-08-19T12:37:09.082Z,7.80
2022-08-19T12:39:39.556Z,8.52
2022-08-19T12:42:08.267Z,9.43
2022-08-19T12:44:37.960Z,8.23
2022-08-19T12:47:07.844Z,7.97
2022-08-19T12:49:55.043Z,8.57
2022-08-19T12:52:25.787Z,10.25
2022-08-19T12:54:55.220Z,8.93
2022-08-19T12:57:32.592Z,8.88
2022-08-19T13:00:04.625Z,7.75
2022-08-19T13:02:38.470Z,7.38
2022-08-19T13:05:10.864Z,8.52
2022-08-19T13:07:39.778Z,8.98
2022-08-19T13:10:09.216Z,21.10
2022-08-19T13:12:37.226Z,6.85
2022-08-19T13:15:11.282Z,12.52
2022-08-19T13:17:42.030Z,8.57
2022-08-19T13:20:12.084Z,7.57
2022-08-19T13:22:40.315Z,7.88
2022-08-19T13:25:09.599Z,7.18
2022-08-19T13:27:37.886Z,6.13
2022-08-19T13:30:25.967Z,6.82
2022-08-19T13:33:15.938Z,7.03
2022-08-19T13:35:49.317Z,7.63
2022-08-19T13:38:19.101Z,7.45
2022-08-19T13:40:47.404Z,5.85
2022-08-19T13:43:23.464Z,6.60
2022-08-19T13:45:53.497Z,7.03
2022-08-19T13:48:22.912Z,5.78
2022-08-19T13:50:50.926Z,5.88
2022-08-19T13:53:19.772Z,7.00
2022-08-19T13:55:47.681Z,6.95
2022-08-19T13:58:15.552Z,4.72
2022-08-19T14:00:45.933Z,4.82
2022-08-19T14:03:14.265Z,5.15
2022-08-19T14:05:43.829Z,4.90
2022-08-19T14:08:15.068Z,4.97
2022-08-19T14:10:45.357Z,7.05
2022-08-19T14:13:16.701Z,5.25
2022-08-19T14:15:45.063Z,7.75
2022-08-19T14:18:13.233Z,4.57
2022-08-19T14:20:41.271Z,5.70
2022-08-19T14:23:10.596Z,5.95
2022-08-19T14:25:38.636Z,4.13
2022-08-19T14:28:07.676Z,4.93
2022-08-19T14:30:38.582Z,4.22
2022-08-19T14:33:07.998Z,7.28
2022-08-19T14:35:36.462Z,3.60
2022-08-19T14:38:05.380Z,4.15
2022-08-19T14:40:35.678Z,5.05
2022-08-19T14:43:06.031Z,7.05
2022-08-19T14:45:36.821Z,7.60
2022-08-19T14:48:05.758Z,16.98
2022-08-19T14:50:34.073Z,17.95
2022-08-19T14:53:12.032Z,9.95
2022-08-19T14:55:44.934Z,5.35
2022-08-19T14:58:29.543Z,5.90
2022-08-19T15:01:00.504Z,6.60
2022-08-19T15:03:29.162Z,4.03
2022-08-19T15:05:58.480Z,6.28
2022-08-19T15:08:27.148Z,10.00
2022-08-19T15:10:56.948Z,6.18
2022-08-19T15:13:25.568Z,3.40
2022-08-19T15:15:53.621Z,5.22
2022-08-19T15:18:22.702Z,6.63
2022-08-19T15:20:51.117Z,4.00
2022-08-19T15:23:20.485Z,9.18
2022-08-19T15:25:48.675Z,4.72
2022-08-19T15:28:18.489Z,5.88
2022-08-19T15:30:46.835Z,4.88
2022-08-19T15:33:15.452Z,6.20
2022-08-19T15:35:44.569Z,3.10
2022-08-19T15:38:14.002Z,3.25
2022-08-19T15:40:43.156Z,5.10
2022-08-19T15:43:12.455Z,3.53
2022-08-19T15:45:44.326Z,3.15
2022-08-19T15:48:15.614Z,3.65
2022-08-19T15:50:43.471Z,3.10
2022-08-19T15:53:12.654Z,6.85
2022-08-19T15:55:46.159Z,5.03
2022-08-19T15:58:33.123Z,5.10
2022-08-19T16:01:23.735Z,8.30
2022-08-19T16:04:14.356Z,3.50
2022-08-19T16:06:45.849Z,5.85
2022-08-19T16:09:15.551Z,4.43
2022-08-19T16:11:45.978Z,3.05
2022-08-19T16:14:14.656Z,3.78
2022-08-19T16:16:47.107Z,5.60
2022-08-19T16:19:17.513Z,3.47
2022-08-19T16:21:48.143Z,5.70
2022-08-19T16:24:18.820Z,3.33
2022-08-19T16:26:48.162Z,3.40
2022-08-19T16:29:33.266Z,3.20
2022-08-19T16:32:04.061Z,7.00
2022-08-19T16:34:32.295Z,5.22
2022-08-19T16:37:01.617Z,3.97
2022-08-19T16:39:29.582Z,3.63
2022-08-19T16:41:57.668Z,4.70
2022-08-19T16:44:26.963Z,3.22
2022-08-19T16:46:59.501Z,5.35
2022-08-19T16:49:53.267Z,3.40
2022-08-19T16:52:19.111Z,3.83
2022-08-19T16:54:47.075Z,4.68
2022-08-19T16:57:15.996Z,4.43
2022-08-19T16:59:48.883Z,4.03
2022-08-19T17:02:18.280Z,3.70
2022-08-19T17:04:57.252Z,4.63
2022-08-19T17:07:27.311Z,6.63
2022-08-19T17:09:55.442Z,4.25
2022-08-19T17:12:31.802Z,4.00
2022-08-19T17:15:01.080Z,4.38
2022-08-19T17:17:29.789Z,3.75
2022-08-19T17:20:00.233Z,4.30
2022-08-19T17:22:28.489Z,4.93
2022-08-19T17:24:58.364Z,4.85
2022-08-19T17:27:31.490Z,4.40
2022-08-19T17:30:02.180Z,4.20
2022-08-19T17:32:30.084Z,5.20
2022-08-19T17:34:59.379Z,4.35
2022-08-19T17:37:28.097Z,6.57
2022-08-19T17:39:56.340Z,4.38
2022-08-19T17:42:24.367Z,5.70
2022-08-19T17:44:52.279Z,5.57
2022-08-19T17:47:21.021Z,5.45
2022-08-19T17:49:48.915Z,3.83
2022-08-19T17:52:18.381Z,5.20
2022-08-19T17:54:46.541Z,3.88
2022-08-19T17:57:14.988Z,3.72
2022-08-19T17:59:42.904Z,4.57
2022-08-19T18:02:12.370Z,5.50
2022-08-19T18:04:41.394Z,4.68
2022-08-19T18:07:10.705Z,4.60
2022-08-19T18:09:49.214Z,5.75
2022-08-19T18:12:17.865Z,7.82
2022-08-19T18:14:46.456Z,5.07
2022-08-19T18:17:19.209Z,8.95
2022-08-19T18:19:48.643Z,7.40
2022-08-19T18:22:25.192Z,9.85
2022-08-19T18:24:54.680Z,6.53
2022-08-19T18:27:22.941Z,5.75
2022-08-19T18:29:50.952Z,5.43
2022-08-19T18:32:23.731Z,7.32
2022-08-19T18:34:53.626Z,6.75
2022-08-19T18:37:21.850Z,5.78
2022-08-19T18:40:07.433Z,8.48
2022-08-19T18:42:54.401Z,5.75
2022-08-19T18:45:43.509Z,6.15
2022-08-19T18:48:29.860Z,5.78
2022-08-19T18:50:59.283Z,7.53
2022-08-19T18:53:29.421Z,5.43
2022-08-19T18:55:57.649Z,5.85
2022-08-19T18:58:32.249Z,6.97
2022-08-19T19:01:01.269Z,5.75
2022-08-19T19:03:29.237Z,5.72
2022-08-19T19:05:57.101Z,6.80
2022-08-19T19:08:26.914Z,6.38
2022-08-19T19:11:00.963Z,6.20
2022-08-19T19:13:30.324Z,5.85
2022-08-19T19:15:58.160Z,5.40
2022-08-19T19:18:26.018Z,7.03
2022-08-19T19:20:53.893Z,8.18
2022-08-19T19:23:22.502Z,8.10
2022-08-19T19:25:52.212Z,6.03
2022-08-19T19:28:25.404Z,8.90
2022-08-19T19:30:58.405Z,9.85
2022-08-19T19:33:26.455Z,5.80
2022-08-19T19:35:54.334Z,5.80
2022-08-19T19:38:22.266Z,6.43
2022-08-19T19:40:50.322Z,5.30
2022-08-19T19:43:19.074Z,5.93
2022-08-19T19:45:49.424Z,7.13
2022-08-19T19:48:19.035Z,6.37
2022-08-19T19:50:54.007Z,6.97
2022-08-19T19:53:26.023Z,8.70
2022-08-19T19:55:57.605Z,6.43
2022-08-19T19:58:28.507Z,6.87
2022-08-19T20:00:56.776Z,7.60
2022-08-19T20:03:26.191Z,6.13
2022-08-19T20:05:54.883Z,6.43
2022-08-19T20:08:40.709Z,7.32
2022-08-19T20:11:09.045Z,8.67
2022-08-19T20:13:40.527Z,6.67
2022-08-19T20:16:08.543Z,6.27
2022-08-19T20:18:38.811Z,8.30
2022-08-19T20:21:07.032Z,7.40
2022-08-19T20:23:35.188Z,7.70
2022-08-19T20:26:03.017Z,8.03
2022-08-19T20:28:31.865Z,6.53
2022-08-19T20:31:00.271Z,8.23
2022-08-19T20:33:30.084Z,6.20
2022-08-19T20:35:59.311Z,6.43
2022-08-19T20:38:27.543Z,6.90
2022-08-19T20:40:55.426Z,9.87
2022-08-19T20:43:23.402Z,9.07
2022-08-19T20:45:51.332Z,7.57
2022-08-19T20:48:19.267Z,8.57
2022-08-19T20:50:48.334Z,8.03
2022-08-19T20:53:19.583Z,8.23
2022-08-19T20:55:50.187Z,6.47
2022-08-19T20:58:19.652Z,8.13
2022-08-19T21:00:48.160Z,6.00
2022-08-19T21:03:19.439Z,6.73
2022-08-19T21:05:48.844Z,8.40
2022-08-19T21:08:19.230Z,6.37
2022-08-19T21:10:48.638Z,8.63
2022-08-19T21:13:18.103Z,5.93
2022-08-19T21:15:46.172Z,7.67
2022-08-19T21:18:17.627Z,9.80
2022-08-19T21:20:46.456Z,8.30
2022-08-19T21:23:19.315Z,7.90
2022-08-19T21:25:54.366Z,8.03
2022-08-19T21:28:34.507Z,5.83
2022-08-19T21:31:06.403Z,7.20
2022-08-19T21:33:34.672Z,12.67
2022-08-19T21:36:03.490Z,6.00
2022-08-19T21:38:33.170Z,7.77
2022-08-19T21:41:05.706Z,7.57
2022-08-19T21:43:35.203Z,7.17
2022-08-19T21:46:03.169Z,6.43
2022-08-19T21:48:31.095Z,6.17
2022-08-19T21:50:58.997Z,7.93
2022-08-19T21:53:34.342Z,5.47
2022-08-19T21:56:04.717Z,7.93
2022-08-19T21:58:33.501Z,10.27
2022-08-19T22:01:05.919Z,7.43
2022-08-19T22:03:35.445Z,5.90
2022-08-19T22:06:03.455Z,12.03
2022-08-19T22:08:32.250Z,8.40
2022-08-19T22:11:00.233Z,4.77
2022-08-19T22:13:39.947Z,7.33
2022-08-19T22:16:09.394Z,9.63
2022-08-19T22:18:37.372Z,6.83
2022-08-19T22:21:11.281Z,7.27
2022-08-19T22:23:41.698Z,6.73
2022-08-19T22:26:09.628Z,6.77
2022-08-19T22:28:39.676Z,5.00
2022-08-19T22:31:09.226Z,6.93
2022-08-19T22:33:38.374Z,7.73
2022-08-19T22:36:08.480Z,6.47
2022-08-19T22:38:38.219Z,3.80
2022-08-19T22:41:08.127Z,5.07
2022-08-19T22:43:37.579Z,6.67
2022-08-19T22:46:16.829Z,7.33
2022-08-19T22:48:46.963Z,6.50
2022-08-19T22:51:32.182Z,7.70
2022-08-19T22:54:00.596Z,4.80
2022-08-19T22:56:30.637Z,5.90
2022-08-19T22:58:58.650Z,5.33
2022-08-19T23:01:30.197Z,5.97
2022-08-19T23:03:59.384Z,3.03
2022-08-19T23:06:33.519Z,3.80
2022-08-19T23:09:02.542Z,5.57
2022-08-19T23:11:35.646Z,6.07
2022-08-19T23:14:06.535Z,7.13
2022-08-19T23:16:38.157Z,4.90
2022-08-19T23:19:07.566Z,4.67
2022-08-19T23:21:36.368Z,3.37
2022-08-19T23:24:05.248Z,4.00
2022-08-19T23:26:35.861Z,3.87
2022-08-19T23:29:23.203Z,3.90
2022-08-19T23:31:53.754Z,6.07
2022-08-19T23:34:21.722Z,6.20
2022-08-19T23:36:50.434Z,4.47
2022-08-19T23:39:19.187Z,6.73
2022-08-19T23:41:47.255Z,6.77
2022-08-19T23:44:15.478Z,5.40
2022-08-19T23:46:55.035Z,5.47
2022-08-19T23:49:26.331Z,3.90
2022-08-19T23:51:56.133Z,7.23
2022-08-19T23:54:27.585Z,4.43
2022-08-19T23:57:13.845Z,5.47
2022-08-19T23:59:45.588Z,6.70
